Terminal Aerodrome Forecast
Issued by NWS

Home | Current Version | Previous Version | Text Only | Print | Product List | Glossary On
Versions: 1 2 3 4 5 6 7 8 9 10 11 12 13
000
FTUS45 KABQ 302334
TAFFMN
TAF
KFMN 302334Z 0100/0124 27012KT P6SM VCSH BKN080
     FM010200 15009KT P6SM VCSH OVC060
      TEMPO 0107/0110 12012G20KT -RA SCT030 OVC040
     FM011000 09015G25KT P6SM VCSH SCT020 OVC035
     FM011500 10015G22KT P6SM VCSH BKN025 BKN060
     FM011900 12012G18KT P6SM VCSH BKN040 BKN070=

USA.gov is the U.S. government's official web portal to all federal, state and local government web resources and services.